sensor_id;sensor_type;location;lat;lon;timestamp;P1;durP1;ratioP1;P2;durP2;ratioP2
58567;SDS011;44354;46.192;-1.076;2022-08-05T00:02:06;1999.90;;;999.90;;
58567;SDS011;44354;46.192;-1.076;2022-08-05T00:04:31;1999.90;;;999.90;;
58567;SDS011;44354;46.192;-1.076;2022-08-05T00:06:57;1999.90;;;999.90;;
58567;SDS011;44354;46.192;-1.076;2022-08-05T00:09:23;1999.90;;;999.90;;
58567;SDS011;44354;46.192;-1.076;2022-08-05T00:11:49;1999.90;;;999.90;;
58567;SDS011;44354;46.192;-1.076;2022-08-05T00:14:14;1999.90;;;999.90;;
58567;SDS011;44354;46.192;-1.076;2022-08-05T00:16:40;1999.90;;;999.90;;
58567;SDS011;44354;46.192;-1.076;2022-08-05T00:19:06;1999.90;;;999.90;;
58567;SDS011;44354;46.192;-1.076;2022-08-05T00:21:32;1999.90;;;999.90;;
58567;SDS011;44354;46.192;-1.076;2022-08-05T00:23:57;1999.90;;;999.90;;
58567;SDS011;44354;46.192;-1.076;2022-08-05T00:26:24;1999.90;;;999.90;;
58567;SDS011;44354;46.192;-1.076;2022-08-05T00:28:50;1999.90;;;999.90;;
58567;SDS011;44354;46.192;-1.076;2022-08-05T00:31:16;1999.90;;;999.90;;
58567;SDS011;44354;46.192;-1.076;2022-08-05T00:33:42;1999.90;;;999.90;;
58567;SDS011;44354;46.192;-1.076;2022-08-05T00:36:08;1999.90;;;999.90;;
58567;SDS011;44354;46.192;-1.076;2022-08-05T00:38:34;1999.90;;;999.90;;
58567;SDS011;44354;46.192;-1.076;2022-08-05T00:41:00;1999.90;;;999.90;;
58567;SDS011;44354;46.192;-1.076;2022-08-05T00:43:26;1999.90;;;999.90;;
58567;SDS011;44354;46.192;-1.076;2022-08-05T00:45:53;1999.90;;;999.90;;
58567;SDS011;44354;46.192;-1.076;2022-08-05T00:48:20;1999.90;;;999.90;;
58567;SDS011;44354;46.192;-1.076;2022-08-05T00:50:47;1999.90;;;999.90;;
58567;SDS011;44354;46.192;-1.076;2022-08-05T00:53:15;1999.90;;;999.90;;
58567;SDS011;44354;46.192;-1.076;2022-08-05T00:55:43;1999.90;;;999.90;;
58567;SDS011;44354;46.192;-1.076;2022-08-05T00:58:10;1999.90;;;999.90;;
58567;SDS011;44354;46.192;-1.076;2022-08-05T01:00:36;1999.90;;;999.90;;
58567;SDS011;44354;46.192;-1.076;2022-08-05T01:03:03;1999.90;;;999.90;;
58567;SDS011;44354;46.192;-1.076;2022-08-05T01:05:29;1999.90;;;999.90;;
58567;SDS011;44354;46.192;-1.076;2022-08-05T01:07:54;1999.90;;;999.90;;
58567;SDS011;44354;46.192;-1.076;2022-08-05T01:10:21;1999.90;;;999.90;;
58567;SDS011;44354;46.192;-1.076;2022-08-05T01:12:56;1999.90;;;999.90;;
58567;SDS011;44354;46.192;-1.076;2022-08-05T01:15:30;1999.90;;;999.90;;
58567;SDS011;44354;46.192;-1.076;2022-08-05T01:18:00;1999.90;;;999.90;;
58567;SDS011;44354;46.192;-1.076;2022-08-05T01:20:33;1999.90;;;999.90;;
58567;SDS011;44354;46.192;-1.076;2022-08-05T01:28:30;1999.90;;;999.90;;
58567;SDS011;44354;46.192;-1.076;2022-08-05T01:33:47;1999.90;;;999.90;;
58567;SDS011;44354;46.192;-1.076;2022-08-05T01:36:18;1999.90;;;999.90;;
58567;SDS011;44354;46.192;-1.076;2022-08-05T01:38:46;1999.90;;;999.90;;
58567;SDS011;44354;46.192;-1.076;2022-08-05T01:41:13;1999.90;;;999.90;;
58567;SDS011;44354;46.192;-1.076;2022-08-05T01:43:44;1999.90;;;999.90;;
58567;SDS011;44354;46.192;-1.076;2022-08-05T01:46:12;1999.90;;;999.90;;
58567;SDS011;44354;46.192;-1.076;2022-08-05T01:48:38;1999.90;;;999.90;;
58567;SDS011;44354;46.192;-1.076;2022-08-05T01:51:05;1999.90;;;999.90;;
58567;SDS011;44354;46.192;-1.076;2022-08-05T01:53:33;1999.90;;;999.90;;
58567;SDS011;44354;46.192;-1.076;2022-08-05T01:56:00;1999.90;;;999.90;;
58567;SDS011;44354;46.192;-1.076;2022-08-05T01:58:27;1999.90;;;999.90;;
58567;SDS011;44354;46.192;-1.076;2022-08-05T02:00:53;1999.90;;;999.90;;
58567;SDS011;44354;46.192;-1.076;2022-08-05T02:03:27;1999.90;;;999.90;;
58567;SDS011;44354;46.192;-1.076;2022-08-05T02:05:56;1999.90;;;999.90;;
58567;SDS011;44354;46.192;-1.076;2022-08-05T02:08:23;1999.90;;;999.90;;
58567;SDS011;44354;46.192;-1.076;2022-08-05T02:10:53;1999.90;;;999.90;;
58567;SDS011;44354;46.192;-1.076;2022-08-05T02:13:37;1999.90;;;999.90;;
58567;SDS011;44354;46.192;-1.076;2022-08-05T02:16:18;1999.90;;;999.90;;
58567;SDS011;44354;46.192;-1.076;2022-08-05T02:18:55;1999.90;;;999.90;;
58567;SDS011;44354;46.192;-1.076;2022-08-05T02:21:34;1999.90;;;999.90;;
58567;SDS011;44354;46.192;-1.076;2022-08-05T02:24:05;1999.90;;;999.90;;
58567;SDS011;44354;46.192;-1.076;2022-08-05T02:26:38;1999.90;;;999.90;;
58567;SDS011;44354;46.192;-1.076;2022-08-05T02:29:10;1999.90;;;999.90;;
58567;SDS011;44354;46.192;-1.076;2022-08-05T02:31:37;1999.90;;;999.90;;
58567;SDS011;44354;46.192;-1.076;2022-08-05T02:34:06;1999.90;;;999.90;;
58567;SDS011;44354;46.192;-1.076;2022-08-05T02:36:36;1999.90;;;999.90;;
58567;SDS011;44354;46.192;-1.076;2022-08-05T02:39:09;1999.90;;;999.90;;
58567;SDS011;44354;46.192;-1.076;2022-08-05T02:41:35;1999.90;;;999.90;;
58567;SDS011;44354;46.192;-1.076;2022-08-05T02:44:06;1999.90;;;999.90;;
58567;SDS011;44354;46.192;-1.076;2022-08-05T02:46:35;1999.90;;;999.90;;
58567;SDS011;44354;46.192;-1.076;2022-08-05T02:49:04;1999.90;;;999.90;;
58567;SDS011;44354;46.192;-1.076;2022-08-05T02:51:31;1999.90;;;999.90;;
58567;SDS011;44354;46.192;-1.076;2022-08-05T02:53:58;1999.90;;;999.90;;
58567;SDS011;44354;46.192;-1.076;2022-08-05T02:56:25;1999.90;;;999.90;;
58567;SDS011;44354;46.192;-1.076;2022-08-05T02:58:52;1999.90;;;999.90;;
58567;SDS011;44354;46.192;-1.076;2022-08-05T03:01:21;1999.90;;;999.90;;
58567;SDS011;44354;46.192;-1.076;2022-08-05T03:03:49;1999.90;;;999.90;;
58567;SDS011;44354;46.192;-1.076;2022-08-05T03:06:18;1999.90;;;999.90;;
58567;SDS011;44354;46.192;-1.076;2022-08-05T03:08:45;1999.90;;;999.90;;
58567;SDS011;44354;46.192;-1.076;2022-08-05T03:11:19;1999.90;;;999.90;;
58567;SDS011;44354;46.192;-1.076;2022-08-05T03:13:49;1999.90;;;999.90;;
58567;SDS011;44354;46.192;-1.076;2022-08-05T03:16:15;1999.90;;;999.90;;
58567;SDS011;44354;46.192;-1.076;2022-08-05T03:18:41;1999.90;;;999.90;;
58567;SDS011;44354;46.192;-1.076;2022-08-05T03:21:07;1999.90;;;999.90;;
58567;SDS011;44354;46.192;-1.076;2022-08-05T03:23:33;1999.90;;;999.90;;
58567;SDS011;44354;46.192;-1.076;2022-08-05T03:26:00;1999.90;;;999.90;;
58567;SDS011;44354;46.192;-1.076;2022-08-05T03:28:27;1999.90;;;999.90;;
58567;SDS011;44354;46.192;-1.076;2022-08-05T03:30:53;1999.90;;;999.90;;
58567;SDS011;44354;46.192;-1.076;2022-08-05T03:33:21;1999.90;;;999.90;;
58567;SDS011;44354;46.192;-1.076;2022-08-05T03:35:47;1999.90;;;999.90;;
58567;SDS011;44354;46.192;-1.076;2022-08-05T03:38:13;1999.90;;;999.90;;
58567;SDS011;44354;46.192;-1.076;2022-08-05T03:40:42;1999.90;;;999.90;;
58567;SDS011;44354;46.192;-1.076;2022-08-05T03:43:09;1999.90;;;999.90;;
58567;SDS011;44354;46.192;-1.076;2022-08-05T03:45:36;1999.90;;;999.90;;
58567;SDS011;44354;46.192;-1.076;2022-08-05T03:48:02;1999.90;;;999.90;;
58567;SDS011;44354;46.192;-1.076;2022-08-05T03:50:49;1999.90;;;999.90;;
58567;SDS011;44354;46.192;-1.076;2022-08-05T03:53:18;1999.90;;;999.90;;
58567;SDS011;44354;46.192;-1.076;2022-08-05T03:56:14;1999.90;;;999.90;;
58567;SDS011;44354;46.192;-1.076;2022-08-05T03:58:49;1999.90;;;999.90;;
58567;SDS011;44354;46.192;-1.076;2022-08-05T04:01:17;1999.90;;;999.90;;
58567;SDS011;44354;46.192;-1.076;2022-08-05T04:03:45;1999.90;;;999.90;;
58567;SDS011;44354;46.192;-1.076;2022-08-05T04:06:12;1999.90;;;999.90;;
58567;SDS011;44354;46.192;-1.076;2022-08-05T04:08:39;1999.90;;;999.90;;
58567;SDS011;44354;46.192;-1.076;2022-08-05T04:11:06;1999.90;;;999.90;;
58567;SDS011;44354;46.192;-1.076;2022-08-05T04:13:32;1999.90;;;999.90;;
58567;SDS011;44354;46.192;-1.076;2022-08-05T04:15:58;1999.90;;;999.90;;
58567;SDS011;44354;46.192;-1.076;2022-08-05T04:18:23;1999.90;;;999.90;;
58567;SDS011;44354;46.192;-1.076;2022-08-05T04:20:53;1999.90;;;999.90;;
58567;SDS011;44354;46.192;-1.076;2022-08-05T04:23:21;1999.90;;;999.90;;
58567;SDS011;44354;46.192;-1.076;2022-08-05T04:25:48;1999.90;;;999.90;;
58567;SDS011;44354;46.192;-1.076;2022-08-05T04:28:14;1999.90;;;999.90;;
58567;SDS011;44354;46.192;-1.076;2022-08-05T04:30:40;1999.90;;;999.90;;
58567;SDS011;44354;46.192;-1.076;2022-08-05T04:33:05;1999.90;;;999.90;;
58567;SDS011;44354;46.192;-1.076;2022-08-05T04:35:31;1999.90;;;999.90;;
58567;SDS011;44354;46.192;-1.076;2022-08-05T04:37:57;1999.90;;;999.90;;
58567;SDS011;44354;46.192;-1.076;2022-08-05T04:40:22;1999.90;;;999.90;;
58567;SDS011;44354;46.192;-1.076;2022-08-05T04:42:48;1999.90;;;999.90;;
58567;SDS011;44354;46.192;-1.076;2022-08-05T04:45:14;1999.90;;;999.90;;
58567;SDS011;44354;46.192;-1.076;2022-08-05T04:47:40;1999.90;;;999.90;;
58567;SDS011;44354;46.192;-1.076;2022-08-05T04:50:05;1999.90;;;999.90;;
58567;SDS011;44354;46.192;-1.076;2022-08-05T04:52:32;1999.90;;;999.90;;
58567;SDS011;44354;46.192;-1.076;2022-08-05T04:54:58;1999.90;;;999.90;;
58567;SDS011;44354;46.192;-1.076;2022-08-05T04:57:24;1999.90;;;999.90;;
58567;SDS011;44354;46.192;-1.076;2022-08-05T04:59:50;1999.90;;;999.90;;
58567;SDS011;44354;46.192;-1.076;2022-08-05T05:02:16;1999.90;;;999.90;;
58567;SDS011;44354;46.192;-1.076;2022-08-05T05:04:41;1999.90;;;999.90;;
58567;SDS011;44354;46.192;-1.076;2022-08-05T05:07:07;1999.90;;;999.90;;
58567;SDS011;44354;46.192;-1.076;2022-08-05T05:09:33;1999.90;;;999.90;;
58567;SDS011;44354;46.192;-1.076;2022-08-05T05:11:58;1999.90;;;999.90;;
58567;SDS011;44354;46.192;-1.076;2022-08-05T05:14:25;1999.90;;;999.90;;
58567;SDS011;44354;46.192;-1.076;2022-08-05T05:16:51;1999.90;;;999.90;;
58567;SDS011;44354;46.192;-1.076;2022-08-05T05:19:16;1999.90;;;999.90;;
58567;SDS011;44354;46.192;-1.076;2022-08-05T05:21:42;1999.90;;;999.90;;
58567;SDS011;44354;46.192;-1.076;2022-08-05T05:24:08;1999.90;;;999.90;;
58567;SDS011;44354;46.192;-1.076;2022-08-05T05:26:34;1999.90;;;999.90;;
58567;SDS011;44354;46.192;-1.076;2022-08-05T05:28:59;1999.90;;;999.90;;
58567;SDS011;44354;46.192;-1.076;2022-08-05T05:31:25;1999.90;;;999.90;;
58567;SDS011;44354;46.192;-1.076;2022-08-05T05:33:51;1999.90;;;999.90;;
58567;SDS011;44354;46.192;-1.076;2022-08-05T05:36:17;1999.90;;;999.90;;
58567;SDS011;44354;46.192;-1.076;2022-08-05T05:38:42;1999.90;;;999.90;;
58567;SDS011;44354;46.192;-1.076;2022-08-05T05:41:08;1999.90;;;999.90;;
58567;SDS011;44354;46.192;-1.076;2022-08-05T05:43:34;1999.90;;;999.90;;
58567;SDS011;44354;46.192;-1.076;2022-08-05T05:45:59;1999.90;;;999.90;;
58567;SDS011;44354;46.192;-1.076;2022-08-05T05:48:25;1999.90;;;999.90;;
58567;SDS011;44354;46.192;-1.076;2022-08-05T05:50:51;1999.90;;;999.90;;
58567;SDS011;44354;46.192;-1.076;2022-08-05T05:53:16;1999.90;;;999.90;;
58567;SDS011;44354;46.192;-1.076;2022-08-05T05:55:42;1999.90;;;999.90;;
58567;SDS011;44354;46.192;-1.076;2022-08-05T05:58:08;1999.90;;;999.90;;
58567;SDS011;44354;46.192;-1.076;2022-08-05T06:00:33;1999.90;;;999.90;;
58567;SDS011;44354;46.192;-1.076;2022-08-05T06:02:59;1999.90;;;999.90;;
58567;SDS011;44354;46.192;-1.076;2022-08-05T06:05:27;1999.90;;;999.90;;
58567;SDS011;44354;46.192;-1.076;2022-08-05T06:07:52;1999.90;;;999.90;;
58567;SDS011;44354;46.192;-1.076;2022-08-05T06:10:18;1999.90;;;999.90;;
58567;SDS011;44354;46.192;-1.076;2022-08-05T06:12:43;1999.90;;;999.90;;
58567;SDS011;44354;46.192;-1.076;2022-08-05T06:15:09;1999.90;;;999.90;;
58567;SDS011;44354;46.192;-1.076;2022-08-05T06:17:35;1999.90;;;999.90;;
58567;SDS011;44354;46.192;-1.076;2022-08-05T06:20:01;1999.90;;;999.90;;
58567;SDS011;44354;46.192;-1.076;2022-08-05T06:22:29;1999.90;;;999.90;;
58567;SDS011;44354;46.192;-1.076;2022-08-05T06:24:56;1999.90;;;999.90;;
58567;SDS011;44354;46.192;-1.076;2022-08-05T06:27:22;1999.90;;;999.90;;
58567;SDS011;44354;46.192;-1.076;2022-08-05T06:29:47;1999.90;;;999.90;;
58567;SDS011;44354;46.192;-1.076;2022-08-05T06:32:13;1999.90;;;999.90;;
58567;SDS011;44354;46.192;-1.076;2022-08-05T06:34:39;1999.90;;;999.90;;
58567;SDS011;44354;46.192;-1.076;2022-08-05T06:37:05;1999.90;;;999.90;;
58567;SDS011;44354;46.192;-1.076;2022-08-05T06:39:31;1999.90;;;999.90;;
58567;SDS011;44354;46.192;-1.076;2022-08-05T06:41:57;1999.90;;;999.90;;
58567;SDS011;44354;46.192;-1.076;2022-08-05T06:44:25;1999.90;;;999.90;;
58567;SDS011;44354;46.192;-1.076;2022-08-05T06:46:51;1999.90;;;999.90;;
58567;SDS011;44354;46.192;-1.076;2022-08-05T06:49:17;1999.90;;;999.90;;
58567;SDS011;44354;46.192;-1.076;2022-08-05T06:51:43;1999.90;;;999.90;;
58567;SDS011;44354;46.192;-1.076;2022-08-05T06:54:08;1999.90;;;999.90;;
58567;SDS011;44354;46.192;-1.076;2022-08-05T06:56:34;1999.90;;;999.90;;
58567;SDS011;44354;46.192;-1.076;2022-08-05T06:58:59;1999.90;;;999.90;;
58567;SDS011;44354;46.192;-1.076;2022-08-05T07:01:26;1999.90;;;999.90;;
58567;SDS011;44354;46.192;-1.076;2022-08-05T07:03:52;1999.90;;;999.90;;
58567;SDS011;44354;46.192;-1.076;2022-08-05T07:06:18;1999.90;;;999.90;;
58567;SDS011;44354;46.192;-1.076;2022-08-05T07:08:44;1999.90;;;999.90;;
58567;SDS011;44354;46.192;-1.076;2022-08-05T07:11:10;1999.90;;;999.90;;
58567;SDS011;44354;46.192;-1.076;2022-08-05T07:13:35;1999.90;;;999.90;;
58567;SDS011;44354;46.192;-1.076;2022-08-05T07:16:19;1999.90;;;999.90;;
58567;SDS011;44354;46.192;-1.076;2022-08-05T07:19:04;1999.90;;;999.90;;
58567;SDS011;44354;46.192;-1.076;2022-08-05T07:21:29;1999.90;;;999.90;;
58567;SDS011;44354;46.192;-1.076;2022-08-05T07:23:55;1999.90;;;999.90;;
58567;SDS011;44354;46.192;-1.076;2022-08-05T07:26:21;1999.90;;;999.90;;
58567;SDS011;44354;46.192;-1.076;2022-08-05T07:28:47;1999.90;;;999.90;;
58567;SDS011;44354;46.192;-1.076;2022-08-05T07:31:14;1999.90;;;999.90;;
58567;SDS011;44354;46.192;-1.076;2022-08-05T07:33:40;1999.90;;;999.90;;
58567;SDS011;44354;46.192;-1.076;2022-08-05T07:36:06;1999.90;;;999.90;;
58567;SDS011;44354;46.192;-1.076;2022-08-05T07:38:33;1999.90;;;999.90;;
58567;SDS011;44354;46.192;-1.076;2022-08-05T07:41:00;1999.90;;;999.90;;
58567;SDS011;44354;46.192;-1.076;2022-08-05T07:43:29;1999.90;;;999.90;;
58567;SDS011;44354;46.192;-1.076;2022-08-05T07:45:55;1999.90;;;999.90;;
58567;SDS011;44354;46.192;-1.076;2022-08-05T07:48:21;1999.90;;;999.90;;
58567;SDS011;44354;46.192;-1.076;2022-08-05T07:50:47;1999.90;;;999.90;;
58567;SDS011;44354;46.192;-1.076;2022-08-05T07:53:12;1999.90;;;999.90;;
58567;SDS011;44354;46.192;-1.076;2022-08-05T07:55:38;1999.90;;;999.90;;
58567;SDS011;44354;46.192;-1.076;2022-08-05T07:58:03;1999.90;;;999.90;;
58567;SDS011;44354;46.192;-1.076;2022-08-05T08:00:29;1999.90;;;999.90;;
58567;SDS011;44354;46.192;-1.076;2022-08-05T08:02:55;1999.90;;;999.90;;
58567;SDS011;44354;46.192;-1.076;2022-08-05T08:05:21;1999.90;;;999.90;;
58567;SDS011;44354;46.192;-1.076;2022-08-05T08:07:47;1999.90;;;999.90;;
58567;SDS011;44354;46.192;-1.076;2022-08-05T08:10:12;1999.90;;;999.90;;
58567;SDS011;44354;46.192;-1.076;2022-08-05T08:12:38;1999.90;;;999.90;;
58567;SDS011;44354;46.192;-1.076;2022-08-05T08:15:04;1999.90;;;999.90;;
58567;SDS011;44354;46.192;-1.076;2022-08-05T08:17:32;1999.90;;;999.90;;
58567;SDS011;44354;46.192;-1.076;2022-08-05T08:19:57;1999.90;;;999.90;;
58567;SDS011;44354;46.192;-1.076;2022-08-05T08:22:26;1999.90;;;999.90;;
58567;SDS011;44354;46.192;-1.076;2022-08-05T08:24:52;1999.90;;;999.90;;
58567;SDS011;44354;46.192;-1.076;2022-08-05T08:27:18;1999.90;;;999.90;;
58567;SDS011;44354;46.192;-1.076;2022-08-05T08:29:43;1999.90;;;999.90;;
58567;SDS011;44354;46.192;-1.076;2022-08-05T08:32:09;1999.90;;;999.90;;
58567;SDS011;44354;46.192;-1.076;2022-08-05T08:34:34;1999.90;;;999.90;;
58567;SDS011;44354;46.192;-1.076;2022-08-05T08:37:00;1999.90;;;999.90;;
58567;SDS011;44354;46.192;-1.076;2022-08-05T08:39:26;1999.90;;;999.90;;
58567;SDS011;44354;46.192;-1.076;2022-08-05T08:41:53;1999.90;;;999.90;;
58567;SDS011;44354;46.192;-1.076;2022-08-05T08:44:22;1999.90;;;999.90;;
58567;SDS011;44354;46.192;-1.076;2022-08-05T08:46:48;1999.90;;;999.90;;
58567;SDS011;44354;46.192;-1.076;2022-08-05T08:49:15;1999.90;;;999.90;;
58567;SDS011;44354;46.192;-1.076;2022-08-05T08:51:48;1999.90;;;999.90;;
58567;SDS011;44354;46.192;-1.076;2022-08-05T08:54:22;1999.90;;;999.90;;
58567;SDS011;44354;46.192;-1.076;2022-08-05T08:56:49;1999.90;;;999.90;;
58567;SDS011;44354;46.192;-1.076;2022-08-05T08:59:16;1999.90;;;999.90;;
58567;SDS011;44354;46.192;-1.076;2022-08-05T09:01:43;1999.90;;;999.90;;
58567;SDS011;44354;46.192;-1.076;2022-08-05T09:04:10;1999.90;;;999.90;;
58567;SDS011;44354;46.192;-1.076;2022-08-05T09:06:37;1999.90;;;999.90;;
58567;SDS011;44354;46.192;-1.076;2022-08-05T09:09:03;1999.90;;;999.90;;
58567;SDS011;44354;46.192;-1.076;2022-08-05T09:11:29;1999.90;;;999.90;;
58567;SDS011;44354;46.192;-1.076;2022-08-05T09:13:57;1999.90;;;999.90;;
58567;SDS011;44354;46.192;-1.076;2022-08-05T09:16:24;1999.90;;;999.90;;
58567;SDS011;44354;46.192;-1.076;2022-08-05T09:18:51;1999.90;;;999.90;;
58567;SDS011;44354;46.192;-1.076;2022-08-05T09:21:17;1999.90;;;999.90;;
58567;SDS011;44354;46.192;-1.076;2022-08-05T09:23:44;747.03;;;686.47;;
58567;SDS011;44354;46.192;-1.076;2022-08-05T09:26:11;1704.50;;;937.13;;
58567;SDS011;44354;46.192;-1.076;2022-08-05T09:28:41;1059.00;;;764.40;;
58567;SDS011;44354;46.192;-1.076;2022-08-05T09:31:08;1137.57;;;836.13;;
58567;SDS011;44354;46.192;-1.076;2022-08-05T09:33:54;1150.60;;;846.40;;
58567;SDS011;44354;46.192;-1.076;2022-08-05T09:39:14;1147.60;;;846.15;;
58567;SDS011;44354;46.192;-1.076;2022-08-05T09:44:33;902.25;;;824.55;;
58567;SDS011;44354;46.192;-1.076;2022-08-05T09:47:07;910.45;;;833.17;;
58567;SDS011;44354;46.192;-1.076;2022-08-05T09:49:38;927.50;;;846.95;;
58567;SDS011;44354;46.192;-1.076;2022-08-05T09:52:31;886.55;;;812.20;;
58567;SDS011;44354;46.192;-1.076;2022-08-05T09:55:09;898.20;;;824.58;;
58567;SDS011;44354;46.192;-1.076;2022-08-05T09:57:42;906.80;;;829.03;;
58567;SDS011;44354;46.192;-1.076;2022-08-05T10:00:20;920.05;;;839.58;;
58567;SDS011;44354;46.192;-1.076;2022-08-05T10:02:50;942.75;;;860.15;;
58567;SDS011;44354;46.192;-1.076;2022-08-05T10:05:28;948.40;;;866.05;;
58567;SDS011;44354;46.192;-1.076;2022-08-05T10:07:55;956.38;;;873.40;;
58567;SDS011;44354;46.192;-1.076;2022-08-05T10:10:23;981.35;;;893.40;;
58567;SDS011;44354;46.192;-1.076;2022-08-05T10:12:52;986.45;;;895.63;;
58567;SDS011;44354;46.192;-1.076;2022-08-05T10:20:40;989.15;;;899.90;;
58567;SDS011;44354;46.192;-1.076;2022-08-05T10:23:06;1488.53;;;944.40;;
58567;SDS011;44354;46.192;-1.076;2022-08-05T10:25:34;994.78;;;904.20;;
58567;SDS011;44354;46.192;-1.076;2022-08-05T10:28:00;978.20;;;889.75;;
58567;SDS011;44354;46.192;-1.076;2022-08-05T10:30:26;977.78;;;890.88;;
58567;SDS011;44354;46.192;-1.076;2022-08-05T10:32:52;952.45;;;868.30;;
58567;SDS011;44354;46.192;-1.076;2022-08-05T10:35:19;1017.90;;;923.33;;
58567;SDS011;44354;46.192;-1.076;2022-08-05T10:37:45;1010.78;;;919.00;;
58567;SDS011;44354;46.192;-1.076;2022-08-05T10:42:43;958.00;;;874.80;;
58567;SDS011;44354;46.192;-1.076;2022-08-05T10:45:11;1042.47;;;944.75;;
58567;SDS011;44354;46.192;-1.076;2022-08-05T10:47:40;1009.65;;;918.13;;
58567;SDS011;44354;46.192;-1.076;2022-08-05T10:50:09;1012.38;;;920.35;;
58567;SDS011;44354;46.192;-1.076;2022-08-05T10:55:21;1043.43;;;946.45;;
58567;SDS011;44354;46.192;-1.076;2022-08-05T10:57:57;1051.93;;;952.92;;
58567;SDS011;44354;46.192;-1.076;2022-08-05T11:00:32;1021.70;;;926.40;;
58567;SDS011;44354;46.192;-1.076;2022-08-05T11:05:30;952.92;;;868.85;;
58567;SDS011;44354;46.192;-1.076;2022-08-05T11:08:07;1067.35;;;964.53;;
58567;SDS011;44354;46.192;-1.076;2022-08-05T11:10:34;1027.32;;;929.45;;
58567;SDS011;44354;46.192;-1.076;2022-08-05T11:13:02;1007.97;;;913.45;;
58567;SDS011;44354;46.192;-1.076;2022-08-05T11:15:33;1018.90;;;923.67;;
58567;SDS011;44354;46.192;-1.076;2022-08-05T11:20:40;1056.97;;;952.58;;
58567;SDS011;44354;46.192;-1.076;2022-08-05T11:23:24;1052.95;;;955.33;;
58567;SDS011;44354;46.192;-1.076;2022-08-05T11:26:09;1087.13;;;980.13;;
58567;SDS011;44354;46.192;-1.076;2022-08-05T11:28:46;1064.65;;;962.83;;
58567;SDS011;44354;46.192;-1.076;2022-08-05T11:33:53;1078.25;;;972.03;;
58567;SDS011;44354;46.192;-1.076;2022-08-05T11:36:42;1097.70;;;990.65;;
58567;SDS011;44354;46.192;-1.076;2022-08-05T11:39:16;1058.85;;;956.70;;
58567;SDS011;44354;46.192;-1.076;2022-08-05T11:42:02;1061.80;;;958.85;;
58567;SDS011;44354;46.192;-1.076;2022-08-05T11:44:35;1043.90;;;945.17;;
58567;SDS011;44354;46.192;-1.076;2022-08-05T11:47:02;1052.78;;;949.17;;
58567;SDS011;44354;46.192;-1.076;2022-08-05T11:49:29;1061.88;;;959.35;;
58567;SDS011;44354;46.192;-1.076;2022-08-05T11:51:55;1072.72;;;966.67;;
58567;SDS011;44354;46.192;-1.076;2022-08-05T11:54:28;1065.50;;;961.00;;
58567;SDS011;44354;46.192;-1.076;2022-08-05T11:56:58;1090.68;;;983.25;;
58567;SDS011;44354;46.192;-1.076;2022-08-05T11:59:28;1088.88;;;980.00;;
58567;SDS011;44354;46.192;-1.076;2022-08-05T12:01:58;1103.25;;;993.05;;
58567;SDS011;44354;46.192;-1.076;2022-08-05T12:04:26;1067.20;;;964.70;;
58567;SDS011;44354;46.192;-1.076;2022-08-05T12:07:01;1090.40;;;984.88;;
58567;SDS011;44354;46.192;-1.076;2022-08-05T12:09:27;1096.40;;;989.85;;
58567;SDS011;44354;46.192;-1.076;2022-08-05T12:11:54;1084.43;;;980.35;;
58567;SDS011;44354;46.192;-1.076;2022-08-05T12:14:20;1069.85;;;966.40;;
58567;SDS011;44354;46.192;-1.076;2022-08-05T12:16:47;1069.90;;;967.42;;
58567;SDS011;44354;46.192;-1.076;2022-08-05T12:19:14;1095.25;;;987.05;;
58567;SDS011;44354;46.192;-1.076;2022-08-05T12:21:45;1072.40;;;970.42;;
58567;SDS011;44354;46.192;-1.076;2022-08-05T12:24:16;1093.88;;;987.65;;
58567;SDS011;44354;46.192;-1.076;2022-08-05T12:29:24;1076.75;;;970.17;;
58567;SDS011;44354;46.192;-1.076;2022-08-05T12:31:54;1066.25;;;961.55;;
58567;SDS011;44354;46.192;-1.076;2022-08-05T12:34:22;1072.72;;;968.05;;
58567;SDS011;44354;46.192;-1.076;2022-08-05T12:36:57;1082.07;;;976.95;;
58567;SDS011;44354;46.192;-1.076;2022-08-05T12:39:25;1081.45;;;975.90;;
58567;SDS011;44354;46.192;-1.076;2022-08-05T12:41:58;1072.88;;;971.10;;
58567;SDS011;44354;46.192;-1.076;2022-08-05T12:44:24;1079.82;;;976.80;;
58567;SDS011;44354;46.192;-1.076;2022-08-05T12:46:51;1069.40;;;967.40;;
58567;SDS011;44354;46.192;-1.076;2022-08-05T12:49:18;1046.35;;;950.65;;
58567;SDS011;44354;46.192;-1.076;2022-08-05T12:51:57;1070.05;;;968.50;;
58567;SDS011;44354;46.192;-1.076;2022-08-05T12:54:24;1028.43;;;934.60;;
58567;SDS011;44354;46.192;-1.076;2022-08-05T12:56:52;1026.90;;;933.70;;
58567;SDS011;44354;46.192;-1.076;2022-08-05T12:59:21;1033.10;;;940.42;;
58567;SDS011;44354;46.192;-1.076;2022-08-05T13:04:26;1004.45;;;914.05;;
58567;SDS011;44354;46.192;-1.076;2022-08-05T13:06:55;1004.35;;;916.75;;
58567;SDS011;44354;46.192;-1.076;2022-08-05T13:09:29;1038.15;;;941.92;;
58567;SDS011;44354;46.192;-1.076;2022-08-05T13:12:00;1008.75;;;919.50;;
58567;SDS011;44354;46.192;-1.076;2022-08-05T13:14:43;988.13;;;901.45;;
58567;SDS011;44354;46.192;-1.076;2022-08-05T13:22:22;1044.72;;;947.58;;
58567;SDS011;44354;46.192;-1.076;2022-08-05T13:24:49;992.10;;;907.35;;
58567;SDS011;44354;46.192;-1.076;2022-08-05T13:27:28;971.20;;;886.83;;
58567;SDS011;44354;46.192;-1.076;2022-08-05T13:29:55;955.45;;;873.83;;
58567;SDS011;44354;46.192;-1.076;2022-08-05T13:32:21;957.30;;;877.55;;
58567;SDS011;44354;46.192;-1.076;2022-08-05T13:34:47;960.03;;;877.50;;
58567;SDS011;44354;46.192;-1.076;2022-08-05T13:37:13;946.88;;;864.05;;
58567;SDS011;44354;46.192;-1.076;2022-08-05T13:39:39;933.45;;;855.60;;
58567;SDS011;44354;46.192;-1.076;2022-08-05T13:42:05;943.35;;;864.97;;
58567;SDS011;44354;46.192;-1.076;2022-08-05T13:44:31;970.17;;;887.53;;
58567;SDS011;44354;46.192;-1.076;2022-08-05T13:46:57;936.78;;;859.75;;
58567;SDS011;44354;46.192;-1.076;2022-08-05T13:49:22;930.08;;;853.70;;
58567;SDS011;44354;46.192;-1.076;2022-08-05T13:51:48;937.40;;;862.25;;
58567;SDS011;44354;46.192;-1.076;2022-08-05T13:54:15;908.72;;;836.50;;
58567;SDS011;44354;46.192;-1.076;2022-08-05T13:56:42;925.30;;;848.05;;
58567;SDS011;44354;46.192;-1.076;2022-08-05T13:59:09;908.13;;;834.42;;
58567;SDS011;44354;46.192;-1.076;2022-08-05T14:01:34;933.97;;;857.13;;
58567;SDS011;44354;46.192;-1.076;2022-08-05T14:04:00;938.65;;;861.97;;
58567;SDS011;44354;46.192;-1.076;2022-08-05T14:06:44;958.15;;;877.35;;
58567;SDS011;44354;46.192;-1.076;2022-08-05T14:09:10;927.45;;;850.70;;
58567;SDS011;44354;46.192;-1.076;2022-08-05T14:11:36;959.78;;;880.35;;
58567;SDS011;44354;46.192;-1.076;2022-08-05T14:14:05;948.03;;;869.00;;
58567;SDS011;44354;46.192;-1.076;2022-08-05T14:16:31;932.95;;;857.25;;
58567;SDS011;44354;46.192;-1.076;2022-08-05T14:18:57;934.00;;;858.38;;
58567;SDS011;44354;46.192;-1.076;2022-08-05T14:21:23;937.20;;;861.03;;
58567;SDS011;44354;46.192;-1.076;2022-08-05T14:23:48;942.53;;;866.08;;